Time;durP1;ratioP1;P1;durP2;ratioP2;P2;SDS_P1;SDS_P2;PMS_P1;PMS_P2;Temp;Humidity;BMP_temperature;BMP_pressure;BME280_temperature;BME280_humidity;BME280_pressure;Samples;Min_cycle;Max_cycle;Signal;HPM_P1;HPM_P2
2023/03/22 00:00:20;;;;;;;53.83;33.30;;;9.40;99.90;;;;;;2602479;54;20886;31
2023/03/22 00:02:56;;;;;;;49.78;33.05;;;9.40;99.90;;;;;;2603364;54;20112;31
2023/03/22 00:05:33;;;;;;;53.53;32.45;;;9.40;99.90;;;;;;2604173;54;20030;31
2023/03/22 00:08:12;;;;;;;51.50;33.35;;;9.40;99.90;;;;;;2622347;46;20863;31
2023/03/22 00:10:47;;;;;;;52.47;33.40;;;9.40;99.90;;;;;;2603961;54;20127;31
2023/03/22 00:13:22;;;;;;;52.90;33.95;;;9.30;99.90;;;;;;2622395;46;20026;31
2023/03/22 00:15:58;;;;;;;51.08;33.45;;;9.30;99.90;;;;;;2622464;46;20038;31
2023/03/22 00:18:34;;;;;;;49.05;31.92;;;9.30;99.90;;;;;;2603853;54;20131;31
2023/03/22 00:21:13;;;;;;;;;;;9.30;99.90;;;;;;2604152;54;20892;31
2023/03/22 00:23:49;;;;;;;45.83;30.38;;;9.20;99.90;;;;;;2610374;46;19950;31
2023/03/22 00:26:24;;;;;;;;;;;9.20;99.90;;;;;;2603315;54;20846;31
2023/03/22 00:29:04;;;;;;;49.10;31.40;;;9.20;99.90;;;;;;2603642;54;20797;31
2023/03/22 00:31:41;;;;;;;50.37;33.27;;;9.20;99.90;;;;;;2603807;54;20061;31
2023/03/22 00:34:19;;;;;;;;;;;9.20;99.90;;;;;;2604200;54;19935;31
2023/03/22 00:36:57;;;;;;;;;;;9.20;99.90;;;;;;2603297;54;19943;31
2023/03/22 00:39:33;;;;;;;46.70;29.85;;;9.20;99.90;;;;;;2622504;46;19935;31
2023/03/22 00:42:09;;;;;;;48.05;29.85;;;9.10;99.90;;;;;;2603684;54;20809;31
2023/03/22 00:44:50;;;;;;;47.40;29.95;;;9.10;99.90;;;;;;2603180;54;20041;31
2023/03/22 00:47:26;;;;;;;51.35;33.25;;;9.10;99.90;;;;;;2622126;46;20057;31
2023/03/22 00:50:02;;;;;;;50.58;32.05;;;9.10;99.90;;;;;;2603927;54;20026;31
2023/03/22 00:52:41;;;;;;;48.83;31.80;;;9.10;99.90;;;;;;2615410;46;20050;31
2023/03/22 00:55:17;;;;;;;49.95;31.98;;;9.20;99.90;;;;;;2603212;54;20037;31
2023/03/22 00:57:54;;;;;;;46.65;30.48;;;9.20;99.90;;;;;;2622126;46;20052;31
2023/03/22 01:03:04;;;;;;;48.35;31.85;;;9.20;99.90;;;;;;2603272;54;20127;31
2023/03/22 01:05:42;;;;;;;46.35;30.73;;;9.20;99.90;;;;;;2602955;54;20911;31
2023/03/22 01:08:21;;;;;;;52.03;32.30;;;9.20;99.90;;;;;;2603996;54;20052;31
2023/03/22 01:10:57;;;;;;;49.42;32.28;;;9.20;99.90;;;;;;2603900;54;20026;31
2023/03/22 01:13:36;;;;;;;49.72;30.95;;;9.20;99.90;;;;;;2622440;46;20033;31
2023/03/22 01:16:10;;;;;;;49.42;31.17;;;9.20;99.90;;;;;;2622070;46;20887;31
2023/03/22 01:18:46;;;;;;;49.77;31.43;;;9.20;99.90;;;;;;2603719;54;20081;31
2023/03/22 01:21:23;;;;;;;51.50;32.80;;;9.20;99.90;;;;;;2603821;54;19993;31
2023/03/22 01:24:02;;;;;;;56.38;34.13;;;9.20;99.90;;;;;;2602937;54;20034;31
2023/03/22 01:26:38;;;;;;;48.80;32.88;;;9.20;99.90;;;;;;2774073;31;22526;31
2023/03/22 01:29:13;;;;;;;45.83;31.63;;;9.20;99.90;;;;;;2603793;54;20033;31
2023/03/22 01:31:50;;;;;;;54.30;34.75;;;9.20;99.90;;;;;;2603776;54;20084;31
2023/03/22 01:34:27;;;;;;;;;;;9.20;99.90;;;;;;2604053;54;20026;31
2023/03/22 01:37:02;;;;;;;47.45;31.25;;;9.20;99.90;;;;;;2602969;54;19942;31
2023/03/22 01:39:44;;;;;;;51.85;32.60;;;9.20;99.90;;;;;;2603599;54;20856;31
2023/03/22 01:42:23;;;;;;;51.70;31.85;;;9.20;99.90;;;;;;2603825;54;20027;31
2023/03/22 01:45:29;;;;;;;51.30;31.70;;;9.20;99.90;;;;;;2614858;46;20038;31
2023/03/22 01:48:07;;;;;;;52.50;32.30;;;9.20;99.90;;;;;;2603454;54;20027;31
2023/03/22 01:50:45;;;;;;;49.63;33.00;;;9.20;99.90;;;;;;2602890;54;20863;31
2023/03/22 01:53:22;;;;;;;52.67;32.73;;;9.20;99.90;;;;;;2603445;54;20061;31
2023/03/22 01:56:02;;;;;;;54.55;33.35;;;9.20;99.90;;;;;;2603788;54;20032;31
2023/03/22 01:58:41;;;;;;;49.78;31.92;;;9.20;99.90;;;;;;2602792;54;20025;31
2023/03/22 02:01:19;;;;;;;51.92;32.03;;;9.20;99.90;;;;;;2603553;54;20117;31
2023/03/22 02:04:00;;;;;;;42.90;27.90;;;9.20;99.90;;;;;;2702266;39;21026;31
2023/03/22 02:06:39;;;;;;;48.85;31.70;;;9.20;99.90;;;;;;2603751;54;20033;31
2023/03/22 02:09:23;;;;;;;46.13;30.57;;;9.30;99.90;;;;;;2622214;46;20057;31
2023/03/22 02:12:07;;;;;;;47.53;30.77;;;9.30;99.90;;;;;;2603905;54;21757;31
2023/03/22 02:14:56;;;;;;;45.73;31.10;;;9.30;99.90;;;;;;2603555;54;20804;31
2023/03/22 02:18:21;;;;;;;51.35;32.25;;;9.30;99.90;;;;;;2603377;54;20073;31
2023/03/22 02:21:48;;;;;;;50.25;32.90;;;9.30;99.90;;;;;;2603544;54;20803;31
2023/03/22 02:27:29;;;;;;;46.65;29.48;;;9.40;99.90;;;;;;2603328;54;20050;31
2023/03/22 02:30:13;;;;;;;51.05;31.05;;;9.40;99.90;;;;;;2603506;54;20063;31
2023/03/22 02:33:06;;;;;;;58.03;34.30;;;9.30;99.90;;;;;;2603461;54;20030;31
2023/03/22 02:35:48;;;;;;;53.65;34.47;;;9.40;99.90;;;;;;2603581;54;20042;31
2023/03/22 02:38:53;;;;;;;56.95;33.35;;;9.30;99.90;;;;;;2602816;54;21426;31
2023/03/22 02:41:32;;;;;;;53.50;34.75;;;9.30;99.90;;;;;;2603322;54;20030;31
2023/03/22 02:44:11;;;;;;;52.65;33.30;;;9.30;99.90;;;;;;2603501;54;20044;31
2023/03/22 02:46:48;;;;;;;55.67;34.83;;;9.30;99.90;;;;;;2602613;54;20042;31
2023/03/22 02:49:27;;;;;;;58.42;36.38;;;9.30;99.90;;;;;;2603083;54;19954;31
2023/03/22 02:52:05;;;;;;;57.88;36.17;;;9.20;99.90;;;;;;2603372;54;20978;31
2023/03/22 02:54:45;;;;;;;56.75;34.42;;;9.20;99.90;;;;;;2603306;54;20031;31
2023/03/22 02:57:25;;;;;;;52.88;33.25;;;9.20;99.90;;;;;;2607231;46;20081;31
2023/03/22 03:00:04;;;;;;;61.53;35.57;;;9.20;99.90;;;;;;2602550;54;20763;31
2023/03/22 03:02:40;;;;;;;53.95;34.55;;;9.20;99.90;;;;;;2621721;46;20853;31
2023/03/22 03:05:17;;;;;;;53.60;33.95;;;9.20;99.90;;;;;;2622257;46;20034;31
2023/03/22 03:07:54;;;;;;;52.17;34.87;;;9.20;99.90;;;;;;2603425;54;20026;31
2023/03/22 03:10:37;;;;;;;56.85;33.55;;;9.10;99.90;;;;;;2602777;54;20765;31
2023/03/22 03:13:15;;;;;;;58.10;35.38;;;9.10;99.90;;;;;;2621525;46;20092;31
2023/03/22 03:15:53;;;;;;;59.33;37.00;;;9.20;99.90;;;;;;2613189;46;20037;31
2023/03/22 03:18:47;;;;;;;51.17;30.83;;;9.20;99.90;;;;;;2602688;54;20894;31
2023/03/22 03:21:29;;;;;;;51.28;31.33;;;9.20;99.90;;;;;;2621330;46;20037;31
2023/03/22 03:24:15;;;;;;;58.08;35.15;;;9.20;99.90;;;;;;2603397;54;20026;31
2023/03/22 03:26:58;;;;;;;56.05;35.50;;;9.20;99.90;;;;;;2603464;54;20030;31
2023/03/22 03:29:36;;;;;;;55.83;34.58;;;9.20;99.90;;;;;;2621670;46;20033;31
2023/03/22 03:32:11;;;;;;;54.15;33.60;;;9.20;99.90;;;;;;2621861;46;20752;31
2023/03/22 03:34:48;;;;;;;59.42;35.72;;;9.30;99.90;;;;;;2621641;46;20053;31
2023/03/22 03:37:27;;;;;;;58.20;35.95;;;9.30;99.90;;;;;;2602777;54;20026;31
2023/03/22 03:40:01;;;;;;;56.67;35.05;;;9.30;99.90;;;;;;2603306;54;19946;31
2023/03/22 03:42:44;;;;;;;50.47;32.70;;;9.20;99.90;;;;;;2603480;54;20039;31
2023/03/22 03:45:22;;;;;;;62.27;34.87;;;9.30;99.90;;;;;;2603449;54;20042;31
2023/03/22 03:48:00;;;;;;;44.90;29.45;;;9.20;99.90;;;;;;2602393;54;20067;31
2023/03/22 03:50:39;;;;;;;52.50;32.90;;;9.20;99.90;;;;;;2603290;54;20084;31
2023/03/22 03:53:15;;;;;;;43.55;29.65;;;9.10;99.90;;;;;;2621410;46;20925;31
2023/03/22 03:55:53;;;;;;;48.22;32.17;;;9.20;99.90;;;;;;2603098;54;20847;31
2023/03/22 03:58:32;;;;;;;41.58;28.23;;;9.20;99.90;;;;;;2701816;39;21610;31
2023/03/22 04:01:09;;;;;;;54.15;33.90;;;9.20;99.90;;;;;;2603241;54;20033;31
2023/03/22 04:06:55;;;;;;;47.15;30.73;;;9.20;99.90;;;;;;2603141;54;20132;31
2023/03/22 04:09:34;;;;;;;55.17;34.08;;;9.30;99.90;;;;;;2602359;54;20022;31
2023/03/22 04:12:36;;;;;;;56.27;34.37;;;9.30;99.90;;;;;;2603124;54;20030;31
2023/03/22 04:15:26;;;;;;;;;;;9.20;99.90;;;;;;2603334;54;19934;31
2023/03/22 04:18:10;;;;;;;57.55;35.30;;;9.20;99.90;;;;;;2603205;54;19934;31
2023/03/22 04:20:52;;;;;;;63.00;36.90;;;9.20;99.90;;;;;;2603044;54;20085;31
2023/03/22 04:23:31;;;;;;;54.95;34.35;;;9.20;99.90;;;;;;2603237;54;20825;31
2023/03/22 04:26:10;;;;;;;54.30;34.17;;;9.20;99.90;;;;;;2602253;54;20122;31
2023/03/22 04:28:57;;;;;;;60.70;34.58;;;9.10;99.90;;;;;;2621303;47;20038;31
2023/03/22 04:31:34;;;;;;;55.72;34.65;;;9.10;99.90;;;;;;2603053;54;20065;31
2023/03/22 04:34:36;;;;;;;59.75;36.30;;;9.10;99.90;;;;;;2603001;54;20807;31
2023/03/22 04:37:17;;;;;;;52.38;30.85;;;9.10;99.90;;;;;;2603250;54;20894;31
2023/03/22 04:40:19;;;;;;;53.58;33.25;;;9.10;99.90;;;;;;2603038;54;20870;31
2023/03/22 04:43:17;;;;;;;61.17;34.38;;;9.10;99.90;;;;;;2602929;54;20057;31
2023/03/22 04:46:04;;;;;;;54.38;33.40;;;9.10;99.90;;;;;;2602903;54;20873;31
2023/03/22 04:48:46;;;;;;;58.53;32.75;;;9.10;99.90;;;;;;2603060;54;20877;31
2023/03/22 04:51:32;;;;;;;63.88;36.55;;;9.00;99.90;;;;;;2604026;54;20042;31
2023/03/22 04:54:29;;;;;;;59.72;33.28;;;9.00;99.90;;;;;;2603764;54;20930;31
2023/03/22 04:57:06;;;;;;;65.05;35.10;;;9.00;99.90;;;;;;2618271;46;20030;31
2023/03/22 04:59:47;;;;;;;58.10;34.08;;;9.00;99.90;;;;;;2603831;54;20993;31
2023/03/22 05:02:23;;;;;;;;;;;9.00;99.90;;;;;;2604139;54;20120;31
2023/03/22 05:05:02;;;;;;;59.87;33.53;;;8.90;99.90;;;;;;2603201;54;19942;31
2023/03/22 05:07:49;;;;;;;56.13;32.80;;;8.90;99.90;;;;;;2603707;54;20089;31
2023/03/22 05:10:28;;;;;;;59.95;33.78;;;8.90;99.90;;;;;;2603761;54;20045;31
2023/03/22 05:13:05;;;;;;;71.45;36.75;;;8.90;99.90;;;;;;2622135;46;20026;31
2023/03/22 05:15:47;;;;;;;57.85;33.65;;;8.90;99.90;;;;;;2622210;46;20034;31
2023/03/22 05:18:29;;;;;;;57.55;33.30;;;8.90;99.90;;;;;;2622239;46;20033;31
2023/03/22 05:21:07;;;;;;;57.92;34.05;;;8.90;99.90;;;;;;2603034;54;20070;31
2023/03/22 05:23:45;;;;;;;56.88;34.08;;;8.90;99.90;;;;;;2603078;54;20085;31
2023/03/22 05:26:25;;;;;;;66.28;35.17;;;8.90;99.90;;;;;;2602976;54;20027;31
2023/03/22 05:29:01;;;;;;;45.65;26.00;;;8.90;99.90;;;;;;2603902;54;20026;31
2023/03/22 05:31:55;;;;;;;57.28;33.40;;;8.90;99.90;;;;;;2603602;54;20055;31
2023/03/22 05:34:34;;;;;;;59.97;35.47;;;8.90;99.90;;;;;;2603785;54;20022;31
2023/03/22 05:37:20;;;;;;;53.83;33.72;;;8.90;99.90;;;;;;2603573;54;20034;31
2023/03/22 05:40:04;;;;;;;55.70;32.55;;;8.90;99.90;;;;;;2603832;54;20026;31
2023/03/22 05:42:44;;;;;;;56.97;33.15;;;9.00;99.90;;;;;;2603583;54;20049;31
2023/03/22 05:45:28;;;;;;;66.07;36.22;;;9.00;99.90;;;;;;2603638;54;20135;31
2023/03/22 05:48:27;;;;;;;61.55;36.15;;;9.00;99.90;;;;;;2603520;54;20034;31
2023/03/22 05:51:02;;;;;;;61.65;36.05;;;9.00;99.90;;;;;;2603660;54;20099;31
2023/03/22 05:53:43;;;;;;;61.78;33.58;;;9.00;99.90;;;;;;2603658;54;20027;31
2023/03/22 05:59:13;;;;;;;64.50;37.03;;;9.10;99.90;;;;;;2603766;54;20089;31
2023/03/22 06:01:49;;;;;;;63.45;35.85;;;9.10;99.90;;;;;;2602088;54;20403;31
2023/03/22 06:04:29;;;;;;;61.67;35.17;;;9.10;99.90;;;;;;2602200;54;20030;31
2023/03/22 06:07:11;;;;;;;62.85;36.95;;;9.10;99.90;;;;;;2621745;46;20072;31
2023/03/22 06:10:13;;;;;;;64.88;36.65;;;9.10;99.90;;;;;;2603552;54;20839;31
2023/03/22 06:12:49;;;;;;;52.97;34.55;;;9.20;99.90;;;;;;2603557;54;22400;31
2023/03/22 06:15:36;;;;;;;60.72;34.95;;;9.20;99.90;;;;;;2603455;54;20073;31
2023/03/22 06:18:14;;;;;;;65.32;36.58;;;9.30;99.90;;;;;;2603776;54;20022;31
2023/03/22 06:20:56;;;;;;;50.87;33.57;;;9.30;99.90;;;;;;2721107;39;20977;31
2023/03/22 06:23:34;;;;;;;60.47;35.05;;;9.30;99.90;;;;;;2602925;54;20988;31
2023/03/22 06:26:12;;;;;;;61.08;38.67;;;9.40;99.90;;;;;;2602914;54;21534;31
2023/03/22 06:28:49;;;;;;;58.15;36.95;;;9.40;99.90;;;;;;2603587;54;20089;31
2023/03/22 06:31:28;;;;;;;50.38;32.90;;;9.50;99.90;;;;;;2621968;46;20034;31
2023/03/22 06:34:11;;;;;;;56.33;36.10;;;9.60;99.90;;;;;;2622023;46;20111;31
2023/03/22 06:36:47;;;;;;;52.22;35.42;;;9.70;99.90;;;;;;2603323;54;20049;31
2023/03/22 06:39:35;;;;;;;52.15;36.17;;;9.80;99.90;;;;;;2603580;54;20851;31
2023/03/22 06:42:11;;;;;;;48.25;34.03;;;10.00;99.90;;;;;;2603466;54;20053;31
2023/03/22 06:44:48;;;;;;;43.85;31.73;;;10.10;99.90;;;;;;2603591;54;20093;31
2023/03/22 06:47:36;;;;;;;38.40;27.93;;;10.60;99.90;;;;;;2603545;54;20089;31
2023/03/22 06:50:14;;;;;;;41.40;31.15;;;11.20;99.90;;;;;;2602638;54;20124;31
2023/03/22 06:53:05;;;;;;;35.53;27.25;;;11.80;99.90;;;;;;2621815;46;20026;31
2023/03/22 06:55:41;;;;;;;38.58;26.85;;;12.20;99.90;;;;;;2621980;46;21009;31
2023/03/22 06:58:22;;;;;;;37.55;28.48;;;12.30;99.90;;;;;;2602984;54;20026;31
2023/03/22 07:01:04;;;;;;;41.65;29.52;;;12.40;99.90;;;;;;2603607;54;19934;31
2023/03/22 07:03:44;;;;;;;39.75;30.63;;;12.30;99.90;;;;;;2603213;54;20878;31
2023/03/22 07:06:23;;;;;;;38.30;30.23;;;12.30;99.90;;;;;;2603293;54;20915;31
2023/03/22 07:09:00;;;;;;;39.90;28.27;;;12.30;99.90;;;;;;2602294;54;20031;31
2023/03/22 07:11:40;;;;;;;37.22;28.13;;;12.50;99.90;;;;;;2603154;54;20026;31
2023/03/22 07:14:16;;;;;;;40.97;28.83;;;12.50;99.90;;;;;;2603071;54;20089;31
2023/03/22 07:17:02;;;;;;;36.10;28.83;;;12.50;99.90;;;;;;2603202;54;20026;31
2023/03/22 07:19:44;;;;;;;29.75;21.73;;;12.70;99.90;;;;;;2603235;54;20781;31
2023/03/22 07:22:23;;;;;;;37.95;27.23;;;12.90;99.90;;;;;;2621963;46;20027;31
2023/03/22 07:25:04;;;;;;;39.17;30.20;;;12.90;99.90;;;;;;2603380;54;19946;31
2023/03/22 07:27:39;;;;;;;40.45;29.75;;;13.00;99.90;;;;;;2621761;46;20033;31
2023/03/22 07:30:17;;;;;;;41.17;29.95;;;12.90;99.90;;;;;;2602645;54;20087;31
2023/03/22 07:32:54;;;;;;;37.05;28.95;;;13.00;99.90;;;;;;2602517;54;20882;31
2023/03/22 07:35:32;;;;;;;38.67;30.67;;;13.20;99.90;;;;;;2603245;54;20027;31
2023/03/22 07:38:10;;;;;;;40.38;31.05;;;13.20;99.90;;;;;;2603398;54;20865;31
2023/03/22 07:40:49;;;;;;;37.03;28.52;;;13.30;99.90;;;;;;2603211;54;20026;31
2023/03/22 07:43:27;;;;;;;38.03;32.03;;;13.40;99.90;;;;;;2603082;54;20031;31
2023/03/22 07:46:13;;;;;;;40.43;31.97;;;13.50;99.90;;;;;;2621663;46;20030;31
2023/03/22 07:49:14;;;;;;;37.13;29.98;;;13.70;99.90;;;;;;2603248;54;20830;31
2023/03/22 07:52:16;;;;;;;39.00;29.60;;;13.70;99.90;;;;;;2603305;54;20103;31
2023/03/22 07:54:51;;;;;;;37.42;29.92;;;13.80;99.90;;;;;;2603093;54;20026;31
2023/03/22 07:57:33;;;;;;;35.67;28.52;;;14.10;99.90;;;;;;2603297;54;20883;31
2023/03/22 08:00:17;;;;;;;34.10;28.20;;;14.20;99.90;;;;;;2603256;54;20027;31
2023/03/22 08:03:04;;;;;;;36.05;29.65;;;14.30;99.90;;;;;;2621643;46;20899;31
2023/03/22 08:06:05;;;;;;;37.28;29.15;;;14.40;99.90;;;;;;2603208;54;20107;31
2023/03/22 08:08:49;;;;;;;33.53;26.92;;;14.70;99.90;;;;;;2603084;54;20032;31
2023/03/22 08:11:25;;;;;;;32.30;26.85;;;15.00;99.90;;;;;;2621604;47;20026;31
2023/03/22 08:14:02;;;;;;;32.05;26.25;;;15.20;99.90;;;;;;2603125;54;20034;31
2023/03/22 08:16:45;;;;;;;32.10;26.90;;;15.20;99.90;;;;;;2621460;47;20030;31
2023/03/22 08:19:21;;;;;;;31.85;26.15;;;15.30;99.90;;;;;;2603047;54;20038;31
2023/03/22 08:22:00;;;;;;;32.65;25.95;;;15.50;99.90;;;;;;2603040;54;20030;31
2023/03/22 08:25:00;;;;;;;32.65;26.30;;;15.40;99.90;;;;;;2603483;54;20067;31
2023/03/22 08:27:46;;;;;;;32.67;28.00;;;15.40;99.90;;;;;;2603773;54;20023;31
2023/03/22 08:30:22;;;;;;;31.10;26.80;;;15.40;99.90;;;;;;2603731;54;20030;31
2023/03/22 08:32:58;;;;;;;31.57;26.23;;;15.50;99.90;;;;;;2603775;54;20927;31
2023/03/22 08:35:33;;;;;;;30.30;26.17;;;15.60;99.90;;;;;;2603730;54;20816;31
2023/03/22 08:38:11;;;;;;;30.92;27.45;;;15.80;99.90;;;;;;2603778;54;20023;31
2023/03/22 08:40:55;;;;;;;29.90;25.23;;;15.90;99.90;;;;;;2603744;54;20025;31
2023/03/22 08:43:33;;;;;;;29.83;25.75;;;16.00;99.90;;;;;;2603702;54;20029;31
2023/03/22 08:46:11;;;;;;;28.13;25.13;;;16.10;99.90;;;;;;2622207;46;20908;31
2023/03/22 08:48:49;;;;;;;25.35;22.65;;;16.20;99.90;;;;;;2603718;54;20022;31
2023/03/22 08:51:32;;;;;;;21.73;19.15;;;16.30;99.90;;;;;;2622440;46;20097;31
2023/03/22 08:54:19;;;;;;;23.27;20.73;;;16.40;99.90;;;;;;2603802;54;20026;31
2023/03/22 08:57:08;;;;;;;24.15;21.55;;;16.50;99.90;;;;;;2603929;54;20824;31
2023/03/22 09:00:05;;;;;;;25.65;22.38;;;16.60;99.90;;;;;;2603667;54;20107;31
2023/03/22 09:03:07;;;;;;;23.40;20.87;;;16.80;99.90;;;;;;2603711;54;20883;31
2023/03/22 09:05:42;;;;;;;22.83;20.52;;;17.10;99.90;;;;;;2602990;54;20089;31
2023/03/22 09:08:18;;;;;;;22.30;19.83;;;17.30;99.90;;;;;;2603981;54;20031;31
2023/03/22 09:11:10;;;;;;;21.80;19.50;;;17.70;99.90;;;;;;2603681;54;20760;31
2023/03/22 09:13:50;;;;;;;20.95;18.75;;;17.90;99.90;;;;;;2603710;54;20335;31
2023/03/22 09:16:28;;;;;;;23.27;20.80;;;18.10;99.90;;;;;;2603580;54;20026;31
2023/03/22 09:19:08;;;;;;;22.48;18.00;;;18.30;99.90;;;;;;2603810;54;20026;31
2023/03/22 09:21:45;;;;;;;17.73;15.93;;;18.40;99.90;;;;;;2603660;54;20046;31
2023/03/22 09:24:38;;;;;;;16.45;14.75;;;18.60;99.90;;;;;;2603696;54;20022;31
2023/03/22 09:27:16;;;;;;;18.05;16.20;;;18.90;99.90;;;;;;2621995;46;20038;31
2023/03/22 09:29:54;;;;;;;15.57;13.77;;;19.10;99.90;;;;;;2603724;54;20859;31
2023/03/22 09:32:31;;;;;;;17.33;15.52;;;19.30;99.90;;;;;;2603623;54;20972;31
2023/03/22 09:35:12;;;;;;;15.30;13.70;;;19.30;99.90;;;;;;2603315;54;20937;31
2023/03/22 09:38:04;;;;;;;18.33;16.42;;;19.20;99.90;;;;;;2622062;46;20038;31
2023/03/22 09:40:41;;;;;;;18.85;15.55;;;19.00;99.90;;;;;;2602745;54;20092;31
2023/03/22 09:43:17;;;;;;;15.30;12.15;;;18.80;99.90;;;;;;2602842;54;20906;31
2023/03/22 09:45:59;;;;;;;13.90;12.40;;;18.70;99.90;;;;;;2603395;54;20026;31
2023/03/22 09:48:37;;;;;;;15.00;13.43;;;18.50;99.90;;;;;;2603866;54;20876;31
2023/03/22 09:51:20;;;;;;;14.23;12.75;;;18.50;99.90;;;;;;2607190;46;20031;31
2023/03/22 09:53:59;;;;;;;15.88;14.07;;;18.50;99.90;;;;;;2603547;54;20935;31
2023/03/22 09:56:34;;;;;;;13.88;12.38;;;18.30;99.90;;;;;;2603756;54;20914;31
2023/03/22 09:59:12;;;;;;;13.02;11.73;;;18.30;99.90;;;;;;2603482;54;20887;31
2023/03/22 10:01:54;;;;;;;13.00;11.70;;;18.30;99.90;;;;;;2622196;46;20026;31
2023/03/22 10:04:52;;;;;;;15.13;11.90;;;18.30;99.90;;;;;;2603483;54;20748;31
2023/03/22 10:07:29;;;;;;;14.70;12.25;;;18.20;99.90;;;;;;2603326;54;20034;31
2023/03/22 10:10:09;;;;;;;12.60;11.30;;;18.30;99.90;;;;;;2603737;54;20030;31
2023/03/22 10:12:48;;;;;;;13.70;11.40;;;18.40;99.90;;;;;;2603333;54;20030;31
2023/03/22 10:15:26;;;;;;;13.43;11.33;;;18.40;99.90;;;;;;2603730;54;20037;31
2023/03/22 10:18:05;;;;;;;12.90;10.77;;;18.30;99.90;;;;;;2603562;54;20127;31
2023/03/22 10:20:42;;;;;;;11.88;10.68;;;18.40;99.90;;;;;;2622221;46;20046;31
2023/03/22 10:23:20;;;;;;;16.02;11.88;;;18.50;99.90;;;;;;2603451;54;20057;31
2023/03/22 10:25:55;;;;;;;14.20;11.20;;;18.60;99.90;;;;;;2602671;54;20976;31
2023/03/22 10:28:37;;;;;;;13.70;11.50;;;18.60;99.90;;;;;;2602807;54;20026;31
2023/03/22 10:31:16;;;;;;;13.07;10.75;;;18.70;99.90;;;;;;2603646;54;20879;31
2023/03/22 10:33:57;;;;;;;13.93;10.50;;;18.80;99.90;;;;;;2603597;54;20026;31
2023/03/22 10:36:33;;;;;;;12.90;11.33;;;18.90;99.90;;;;;;2603456;54;20037;31
2023/03/22 10:39:15;;;;;;;13.30;10.23;;;18.90;99.90;;;;;;2603486;54;20034;31
2023/03/22 10:41:51;;;;;;;14.70;11.52;;;18.90;99.90;;;;;;2621970;46;20037;31
2023/03/22 10:44:33;;;;;;;10.27;8.75;;;18.90;99.90;;;;;;2603491;54;20030;31
2023/03/22 10:49:44;;;;;;;11.90;8.68;;;18.80;99.90;;;;;;2603379;54;20052;31
2023/03/22 10:52:25;;;;;;;11.25;8.57;;;18.90;99.90;;;;;;2603256;54;20774;31
2023/03/22 10:55:03;;;;;;;9.98;8.52;;;19.00;99.90;;;;;;2621993;46;20027;31
2023/03/22 10:57:38;;;;;;;;;;;19.10;99.90;;;;;;2617178;46;20037;31
2023/03/22 11:00:19;;;;;;;10.43;9.13;;;19.10;99.90;;;;;;2603644;54;19957;31
2023/03/22 11:02:57;;;;;;;13.15;9.93;;;19.20;99.90;;;;;;2603730;54;19938;31
2023/03/22 11:05:36;;;;;;;15.52;9.70;;;19.20;99.90;;;;;;2602455;54;20048;31
2023/03/22 11:08:16;;;;;;;12.00;10.00;;;19.20;99.90;;;;;;2608492;46;20022;31
2023/03/22 11:10:57;;;;;;;12.48;11.18;;;19.20;99.90;;;;;;2621586;46;20079;31
2023/03/22 11:13:35;;;;;;;12.75;11.23;;;19.30;99.90;;;;;;2621913;46;20033;31
2023/03/22 11:16:12;;;;;;;12.73;11.17;;;19.20;99.90;;;;;;2621538;46;20026;31
2023/03/22 11:18:47;;;;;;;11.52;10.30;;;19.20;99.90;;;;;;2602599;54;20254;31
2023/03/22 11:21:28;;;;;;;15.83;11.30;;;19.20;99.90;;;;;;2603248;54;20038;31
2023/03/22 11:24:05;;;;;;;12.38;11.07;;;19.20;99.90;;;;;;2603441;54;20030;31
2023/03/22 11:26:41;;;;;;;12.03;10.80;;;19.20;99.90;;;;;;2603124;54;20748;31
2023/03/22 11:29:20;;;;;;;14.00;11.60;;;19.10;99.90;;;;;;2621540;46;20143;31
2023/03/22 11:31:58;;;;;;;12.98;11.65;;;18.90;99.90;;;;;;2603211;54;20827;31
2023/03/22 11:34:33;;;;;;;13.07;10.90;;;18.90;99.90;;;;;;2621698;46;20910;31
2023/03/22 11:37:17;;;;;;;13.63;11.10;;;18.90;99.90;;;;;;2603215;54;20089;31
2023/03/22 11:39:55;;;;;;;13.77;11.17;;;18.90;99.90;;;;;;2603325;54;21630;31
2023/03/22 11:42:33;;;;;;;12.87;11.57;;;18.80;99.90;;;;;;2603245;54;20760;31
2023/03/22 11:45:10;;;;;;;14.23;12.73;;;18.80;99.90;;;;;;2603190;54;20049;31
2023/03/22 11:47:44;;;;;;;13.80;12.40;;;18.70;99.90;;;;;;2603199;54;20030;31
2023/03/22 11:50:29;;;;;;;14.40;12.90;;;18.70;99.90;;;;;;2602425;54;20027;31
2023/03/22 11:53:10;;;;;;;15.32;13.73;;;18.70;99.90;;;;;;2603025;54;21606;31
2023/03/22 11:55:44;;;;;;;14.55;12.50;;;18.60;99.90;;;;;;2603085;54;20761;31
2023/03/22 11:58:30;;;;;;;13.90;12.50;;;18.50;99.90;;;;;;2602835;54;20957;31
2023/03/22 12:01:07;;;;;;;15.60;13.85;;;18.50;99.90;;;;;;2772638;31;21748;31
2023/03/22 12:03:45;;;;;;;14.43;13.00;;;18.60;99.90;;;;;;2621564;47;20026;31
2023/03/22 12:06:22;;;;;;;14.27;12.77;;;18.60;99.90;;;;;;2621315;47;20049;31
2023/03/22 12:09:03;;;;;;;16.75;13.35;;;18.60;99.90;;;;;;2603351;54;20057;31
2023/03/22 12:11:38;;;;;;;14.90;12.18;;;18.60;99.90;;;;;;2603271;54;20034;31
2023/03/22 12:14:17;;;;;;;14.45;13.00;;;18.50;99.90;;;;;;2603056;54;20521;31
2023/03/22 12:16:54;;;;;;;15.65;12.90;;;18.50;99.90;;;;;;2602951;54;20046;31
2023/03/22 12:19:39;;;;;;;12.45;11.02;;;18.50;99.90;;;;;;2602380;54;21402;31
2023/03/22 12:22:17;;;;;;;12.65;11.35;;;18.60;99.90;;;;;;2621331;47;20862;31
2023/03/22 12:24:57;;;;;;;14.20;11.32;;;18.70;99.90;;;;;;2701576;39;21594;31
2023/03/22 12:27:36;;;;;;;14.38;12.95;;;18.70;99.90;;;;;;2603150;54;20108;31
2023/03/22 12:30:14;;;;;;;11.93;10.73;;;18.70;99.90;;;;;;2621485;47;20156;31
2023/03/22 12:32:52;;;;;;;11.95;10.10;;;18.80;99.90;;;;;;2621478;47;20026;31
2023/03/22 12:38:11;;;;;;;12.10;10.85;;;18.80;99.90;;;;;;2603195;54;20030;31
2023/03/22 12:40:53;;;;;;;12.35;10.95;;;18.80;99.90;;;;;;2603198;54;20033;31
2023/03/22 12:43:38;;;;;;;9.70;8.77;;;18.70;99.90;;;;;;2602929;54;20590;31
2023/03/22 12:46:15;;;;;;;10.75;9.25;;;18.80;99.90;;;;;;2621301;47;20027;31
2023/03/22 12:48:51;;;;;;;10.75;8.90;;;18.80;99.90;;;;;;2603035;54;20101;31
2023/03/22 12:51:27;;;;;;;10.15;9.07;;;18.70;99.90;;;;;;2602850;54;20911;31
2023/03/22 12:54:03;;;;;;;11.45;10.05;;;18.70;99.90;;;;;;2621438;47;20023;31
2023/03/22 12:56:43;;;;;;;12.63;10.43;;;18.60;99.90;;;;;;2602900;54;20120;31
2023/03/22 12:59:19;;;;;;;11.77;10.27;;;18.60;99.90;;;;;;2701512;39;20422;31
2023/03/22 13:01:58;;;;;;;10.15;8.98;;;18.60;99.90;;;;;;2621230;47;20026;31
2023/03/22 13:04:51;;;;;;;7.93;7.13;;;18.70;99.90;;;;;;2603154;54;19938;31
2023/03/22 13:07:41;;;;;;;10.10;6.65;;;18.70;99.90;;;;;;2602746;54;20030;31
2023/03/22 13:10:41;;;;;;;7.20;6.40;;;18.80;99.90;;;;;;2603271;54;20914;31
2023/03/22 13:13:33;;;;;;;11.00;6.93;;;18.70;99.90;;;;;;2603756;54;20780;31
2023/03/22 13:18:57;;;;;;;8.10;6.22;;;18.70;99.90;;;;;;2603681;54;20030;31
2023/03/22 13:21:35;;;;;;;11.32;6.93;;;18.80;99.90;;;;;;2603571;54;20037;31
2023/03/22 13:24:31;;;;;;;8.07;6.40;;;18.80;99.90;;;;;;2603727;54;20860;31
2023/03/22 13:27:10;;;;;;;6.35;5.45;;;18.80;99.90;;;;;;2603669;54;20030;31
2023/03/22 13:29:52;;;;;;;6.28;4.78;;;18.90;99.90;;;;;;2603581;54;20026;31
2023/03/22 13:32:32;;;;;;;7.70;5.82;;;18.90;99.90;;;;;;2622250;46;20030;31
2023/03/22 13:35:23;;;;;;;6.15;4.90;;;18.90;99.90;;;;;;2603720;54;20885;31
2023/03/22 13:38:04;;;;;;;6.43;5.10;;;18.90;99.90;;;;;;2621964;46;20034;31
2023/03/22 13:40:46;;;;;;;7.07;5.40;;;18.90;99.90;;;;;;2603590;54;20041;31
2023/03/22 13:43:20;;;;;;;7.30;5.60;;;18.90;99.90;;;;;;2603584;54;20033;31
2023/03/22 13:46:29;;;;;;;10.80;6.20;;;18.90;99.90;;;;;;2621721;46;20038;31
2023/03/22 13:49:36;;;;;;;7.30;5.90;;;19.00;99.90;;;;;;2603598;54;20085;31
2023/03/22 13:52:11;;;;;;;6.10;4.93;;;18.90;99.90;;;;;;2603528;54;20931;31
2023/03/22 13:54:51;;;;;;;6.55;5.10;;;19.00;99.90;;;;;;2701744;39;21472;31
2023/03/22 13:57:49;;;;;;;8.15;6.00;;;19.00;99.90;;;;;;2603671;54;20030;31
2023/03/22 14:00:46;;;;;;;8.60;4.90;;;19.10;99.90;;;;;;2603708;54;20030;31
2023/03/22 14:03:33;;;;;;;8.50;5.30;;;19.10;99.90;;;;;;2603719;54;20868;31
2023/03/22 14:06:14;;;;;;;6.82;4.90;;;19.10;99.90;;;;;;2603311;54;20037;31
2023/03/22 14:08:51;;;;;;;5.50;4.80;;;19.10;99.90;;;;;;2603476;54;20026;31
2023/03/22 14:11:28;;;;;;;6.43;5.23;;;19.10;99.90;;;;;;2602663;54;20771;31
2023/03/22 14:14:07;;;;;;;7.50;5.57;;;19.10;99.90;;;;;;2602936;54;20250;31
2023/03/22 14:16:44;;;;;;;8.13;5.78;;;19.10;99.90;;;;;;2622011;46;20089;31